Time;durP1;ratioP1;P1;durP2;ratioP2;P2;SDS_P1;SDS_P2;PMS_P1;PMS_P2;Temp;Humidity;BMP_temperature;BMP_pressure;BME280_temperature;BME280_humidity;BME280_pressure;Samples;Min_cycle;Max_cycle;Signal;HPM_P1;HPM_P2
2023/10/17 00:01:34;;;;;;;;;;;5.90;99.90;;;;;;5119219;28;20315;-65
2023/10/17 00:04:38;;;;;;;;;;;5.70;99.90;;;;;;5119441;28;20365;-66
2023/10/17 00:06:58;;;;;;;;;;;5.80;99.90;;;;;;5117547;28;20010;-65
2023/10/17 00:09:29;;;;;;;;;;;6.00;99.90;;;;;;5119275;28;19918;-66
2023/10/17 00:14:23;;;;;;;;;;;6.00;99.90;;;;;;5098521;28;19934;-66
2023/10/17 00:16:50;;;;;;;;;;;5.80;99.90;;;;;;5105312;28;19911;-66
2023/10/17 00:19:17;;;;;;;;;;;5.80;99.90;;;;;;5119322;28;19918;-66
2023/10/17 00:21:43;;;;;;;;;;;5.70;99.90;;;;;;5118507;28;19978;-66
2023/10/17 00:24:09;;;;;;;;;;;5.70;99.90;;;;;;5119037;28;19908;-66
2023/10/17 00:26:36;;;;;;;;;;;5.70;99.90;;;;;;5118781;28;19966;-66
2023/10/17 00:29:04;;;;;;;;;;;5.70;99.90;;;;;;5118728;28;19973;-66
2023/10/17 00:31:35;;;;;;;;;;;5.80;99.90;;;;;;5117488;28;20154;-66
2023/10/17 00:34:01;;;;;;;;;;;6.00;99.90;;;;;;5117665;28;19977;-66
2023/10/17 00:36:27;;;;;;;;;;;6.00;99.90;;;;;;5118392;28;19979;-66
2023/10/17 00:38:54;;;;;;;;;;;5.80;99.90;;;;;;5117400;28;19912;-66
2023/10/17 00:44:15;;;;;;;;;;;5.50;99.90;;;;;;5098128;28;19974;-65
2023/10/17 00:46:41;;;;;;;;;;;5.50;99.90;;;;;;5118527;28;19911;-66
2023/10/17 00:49:10;;;;;;;;;;;5.40;99.90;;;;;;5117181;28;19966;-66
2023/10/17 00:51:39;;;;;;;;;;;5.60;99.90;;;;;;5118021;28;20349;-66
2023/10/17 00:54:06;;;;;;;;;;;5.70;99.90;;;;;;5118530;28;19912;-66
2023/10/17 00:56:32;;;;;;;;;;;5.80;99.90;;;;;;5117012;28;19912;-66
2023/10/17 00:59:00;;;;;;;;;;;5.80;99.90;;;;;;5116665;28;19908;-66
2023/10/17 01:01:27;;;;;;;;;;;5.90;99.90;;;;;;5118091;28;19916;-66
2023/10/17 01:03:54;;;;;;;;;;;5.90;99.90;;;;;;5118351;28;20219;-66
2023/10/17 01:08:49;;;;;;;;;;;5.70;99.90;;;;;;5117032;28;19919;-66
2023/10/17 01:11:20;;;;;;;;;;;5.70;99.90;;;;;;5116588;28;19920;-66
2023/10/17 01:13:47;;;;;;;;;;;5.70;99.90;;;;;;5075013;28;19919;-66
2023/10/17 01:16:16;;;;;;;;;;;5.60;99.90;;;;;;5096859;28;19913;-65
2023/10/17 01:18:45;;;;;;;;;;;5.60;99.90;;;;;;5116739;28;19918;-66
2023/10/17 01:21:12;;;;;;;;;;;5.60;99.90;;;;;;5117599;28;19916;-66
2023/10/17 01:23:38;;;;;;;;;;;5.50;99.90;;;;;;5114407;28;19983;-66
2023/10/17 01:26:08;;;;;;;;;;;5.50;99.90;;;;;;5095687;28;19916;-66
2023/10/17 01:28:37;;;;;;;;;;;5.50;99.90;;;;;;5095622;28;19919;-66
2023/10/17 01:31:03;;;;;;;;;;;5.60;99.90;;;;;;5095927;28;20385;-66
2023/10/17 01:33:30;;;;;;;;;;;5.60;99.90;;;;;;5096079;28;20364;-66
2023/10/17 01:35:57;;;;;;;;;;;5.40;99.90;;;;;;5095268;28;19919;-66
2023/10/17 01:38:25;;;;;;;;;;;5.30;99.90;;;;;;5095702;28;19993;-66
2023/10/17 01:40:53;;;;;;;;;;;5.30;99.90;;;;;;5095762;28;19912;-66
2023/10/17 01:43:19;;;;;;;;;;;5.20;99.90;;;;;;5096743;28;19912;-66
2023/10/17 01:45:48;;;;;;;;;;;5.20;99.90;;;;;;5096391;28;19916;-65
2023/10/17 01:48:14;;;;;;;;;;;5.10;99.90;;;;;;5095699;28;19919;-66
2023/10/17 01:50:39;;;;;;;;;;;5.20;99.90;;;;;;5095099;28;19912;-65
2023/10/17 01:53:12;;;;;;;;;;;5.20;99.90;;;;;;5096978;28;19912;-66
2023/10/17 01:55:42;;;;;;;;;;;5.20;99.90;;;;;;5096766;28;19912;-65
2023/10/17 01:58:08;;;;;;;;;;;5.20;99.90;;;;;;5095294;28;19912;-66
2023/10/17 02:03:03;;;;;;;;;;;5.10;99.90;;;;;;5095528;28;19927;-66
2023/10/17 02:05:29;;;;;;;;;;;5.10;99.90;;;;;;5094986;28;19923;-66
2023/10/17 02:07:55;;;;;;;;;;;5.20;99.90;;;;;;5095144;28;20002;-66
2023/10/17 02:10:21;;;;;;;;;;;5.20;99.90;;;;;;5095141;28;20205;-65
2023/10/17 02:12:48;;;;;;;;;;;5.30;99.90;;;;;;5094850;28;19966;-66
2023/10/17 02:15:19;;;;;;;;;;;5.40;99.90;;;;;;5095209;28;19912;-66
2023/10/17 02:17:48;;;;;;;;;;;5.40;99.90;;;;;;5109307;28;20010;-66
2023/10/17 02:20:29;;;;;;;;;;;5.20;99.90;;;;;;5115314;28;19915;-66
2023/10/17 02:23:01;;;;;;;;;;;5.20;99.90;;;;;;5115374;28;19924;-65
2023/10/17 02:25:32;;;;;;;;;;;5.30;99.90;;;;;;5116592;28;19915;-65
2023/10/17 02:27:59;;;;;;;;;;;5.30;99.90;;;;;;5115368;28;20307;-66
2023/10/17 02:30:24;;;;;;;;;;;5.30;99.90;;;;;;5116478;28;19908;-66
2023/10/17 02:32:56;;;;;;;;;;;5.30;99.90;;;;;;5115274;28;19915;-66
2023/10/17 02:35:39;;;;;;;;;;;5.30;99.90;;;;;;5114990;28;19916;-66
2023/10/17 02:38:05;;;;;;;;;;;5.20;99.90;;;;;;5116621;28;19911;-66
2023/10/17 02:40:38;;;;;;;;;;;5.30;99.90;;;;;;5116520;28;19912;-66
2023/10/17 02:43:04;;;;;;;;;;;5.40;99.90;;;;;;5116648;28;19911;-66
2023/10/17 02:45:29;;;;;;;;;;;5.40;99.90;;;;;;5114821;28;19919;-66
2023/10/17 02:50:49;;;;;;;;;;;5.30;99.90;;;;;;5116369;28;20304;-66
2023/10/17 02:53:14;;;;;;;;;;;5.30;99.90;;;;;;5115157;28;19918;-66
2023/10/17 02:55:40;;;;;;;;;;;5.40;99.90;;;;;;5114821;28;19915;-66
2023/10/17 02:58:06;;;;;;;;;;;5.40;99.90;;;;;;5117657;28;19912;-65
2023/10/17 03:00:35;;;;;;;;;;;5.30;99.90;;;;;;5119293;28;19955;-66
2023/10/17 03:03:12;;;;;;;;;;;5.20;99.90;;;;;;5119015;28;19943;-66
2023/10/17 03:05:43;;;;;;;;;;;5.40;99.90;;;;;;5119116;28;19922;-65
2023/10/17 03:08:11;;;;;;;;;;;5.60;99.90;;;;;;5119086;28;19920;-65
2023/10/17 03:10:37;;;;;;;;;;;5.50;99.90;;;;;;5118853;28;20206;-65
2023/10/17 03:13:06;;;;;;;;;;;5.30;99.90;;;;;;5105573;28;20161;-65
2023/10/17 03:15:37;;;;;;;;;;;5.40;99.90;;;;;;5098567;28;20003;-66
2023/10/17 03:18:03;;;;;;;;;;;5.40;99.90;;;;;;5116628;28;19911;-65
2023/10/17 03:20:41;;;;;;;;;;;5.30;99.90;;;;;;5118739;28;20273;-65
2023/10/17 03:23:10;;;;;;;;;;;5.10;99.90;;;;;;5118791;28;19919;-65
2023/10/17 03:25:39;;;;;;;;;;;5.10;99.90;;;;;;5118491;28;19916;-65
2023/10/17 03:28:09;;;;;;;;;;;5.00;99.90;;;;;;5120112;28;19912;-65
2023/10/17 03:30:35;;;;;;;;;;;4.90;99.90;;;;;;5118648;28;20327;-65
2023/10/17 03:35:29;;;;;;;;;;;4.90;99.90;;;;;;5099400;28;19912;-65
2023/10/17 03:37:54;;;;;;;;;;;4.90;99.90;;;;;;5099570;28;19908;-65
2023/10/17 03:40:40;;;;;;;;;;;4.90;99.90;;;;;;5099398;28;19916;-66
2023/10/17 03:43:12;;;;;;;;;;;4.80;99.90;;;;;;5099353;28;20312;-66
2023/10/17 03:45:58;;;;;;;;;;;4.80;99.90;;;;;;5099258;28;20377;-65
2023/10/17 03:48:25;;;;;;;;;;;4.80;99.90;;;;;;5098990;28;19965;-66
2023/10/17 03:51:08;;;;;;;;;;;4.80;99.90;;;;;;5099323;28;19924;-66
2023/10/17 03:53:44;;;;;;;;;;;4.80;99.90;;;;;;5099143;28;19912;-66
2023/10/17 03:56:11;;;;;;;;;;;4.80;99.90;;;;;;5099006;28;19923;-65
2023/10/17 04:01:24;;;;;;;;;;;4.60;99.90;;;;;;5098866;28;19930;-65
2023/10/17 04:03:56;;;;;;;;;;;4.70;99.90;;;;;;5097500;28;19912;-66
2023/10/17 04:06:34;;;;;;;;;;;4.70;99.90;;;;;;5097656;28;19964;-66
2023/10/17 04:11:46;;;;;;;;;;;4.80;99.90;;;;;;5098521;28;20362;-65
2023/10/17 04:14:12;;;;;;;;;;;4.80;99.90;;;;;;5098692;28;20396;-66
2023/10/17 04:16:43;;;;;;;;;;;4.70;99.90;;;;;;5103526;28;19912;-65
2023/10/17 04:19:18;;;;;;;;;;;4.70;99.90;;;;;;5118768;28;19918;-65
2023/10/17 04:21:46;;;;;;;;;;;4.70;99.90;;;;;;5119033;28;20384;-65
2023/10/17 04:24:13;;;;;;;;;;;4.80;99.90;;;;;;5118977;28;19908;-66
2023/10/17 04:26:45;;;;;;;;;;;4.80;99.90;;;;;;5118545;28;19915;-65
2023/10/17 04:29:18;;;;;;;;;;;4.90;99.90;;;;;;5119085;28;20147;-66
2023/10/17 04:31:44;;;;;;;;;;;4.90;99.90;;;;;;5118521;28;20292;-65
2023/10/17 04:34:21;;;;;;;;;;;4.80;99.90;;;;;;5118802;28;19919;-65
2023/10/17 04:36:51;;;;;;;;;;;4.90;99.90;;;;;;5118789;28;19912;-65
2023/10/17 04:44:32;;;;;;;;;;;4.80;99.90;;;;;;5118529;28;20273;-65
2023/10/17 04:49:36;;;;;;;;;;;4.80;99.90;;;;;;5118421;28;20362;-65
2023/10/17 04:52:06;;;;;;;;;;;4.70;99.90;;;;;;5118319;28;20352;-65
2023/10/17 04:57:04;;;;;;;;;;;4.70;99.90;;;;;;5118494;28;19958;-65
2023/10/17 06:18:49;;;;;;;;;;;6.30;99.90;;;;;;5103647;28;20384;-65
2023/10/17 06:21:18;;;;;;;;;;;6.20;99.90;;;;;;5095123;28;19923;-65
2023/10/17 06:34:17;;;;;;;;;;;6.60;99.90;;;;;;5095956;28;20362;-65
2023/10/17 06:36:43;;;;;;;;;;;6.70;99.90;;;;;;5096061;28;20278;-65
2023/10/17 06:39:19;;;;;;;;;;;6.90;99.90;;;;;;5096484;28;19916;-65
2023/10/17 06:41:45;;;;;;;;;;;6.80;99.90;;;;;;5096399;28;20008;-65
2023/10/17 06:44:16;;;;;;;;;;;6.90;99.90;;;;;;5096574;28;19922;-65
2023/10/17 06:47:16;;;;;;;;;;;6.90;99.90;;;;;;5094939;28;19922;-65
2023/10/17 06:54:41;;;;;;;;;;;7.30;99.90;;;;;;5094524;28;20269;-66
2023/10/17 06:57:19;;;;;;;;;;;7.50;99.90;;;;;;5095782;27;20361;-66
2023/10/17 06:59:45;;;;;;;;;;;7.50;99.90;;;;;;5094130;28;19916;-65
2023/10/17 07:02:18;;;;;;;;;;;7.50;99.90;;;;;;5088913;28;19927;-66
2023/10/17 07:04:49;;;;;;;;;;;7.50;99.90;;;;;;5089966;28;20010;-66
2023/10/17 07:07:16;;;;;;;;;;;7.40;99.90;;;;;;5090276;28;19920;-65
2023/10/17 07:09:42;;;;;;;;;;;7.50;99.90;;;;;;5090227;28;19912;-66
2023/10/17 07:12:13;;;;;;;;;;;7.30;99.90;;;;;;5092925;28;19920;-66
2023/10/17 07:14:40;;;;;;;;;;;7.30;99.90;;;;;;5094788;28;19995;-65
2023/10/17 07:17:17;;;;;;;;;;;7.50;99.90;;;;;;5094641;28;19913;-65
2023/10/17 07:19:47;;;;;;;;;;;7.50;99.90;;;;;;5095509;28;20003;-66
2023/10/17 07:22:15;;;;;;;;;;;7.40;99.90;;;;;;5095343;28;19933;-66
2023/10/17 07:24:43;;;;;;;;;;;7.50;99.90;;;;;;5093263;28;19997;-66
2023/10/17 07:27:12;;;;;;;;;;;7.50;99.90;;;;;;5094659;28;19986;-65
2023/10/17 07:29:37;;;;;;;;;;;7.50;99.90;;;;;;5092793;28;20353;-65
2023/10/17 07:32:09;;;;;;;;;;;7.50;99.90;;;;;;5091864;28;19915;-66
2023/10/17 07:34:35;;;;;;;;;;;7.50;99.90;;;;;;5095411;28;19920;-66
2023/10/17 07:40:00;;;;;;;;;;;7.60;99.90;;;;;;5095022;28;19955;-65
2023/10/17 07:42:31;;;;;;;;;;;7.50;99.90;;;;;;5095173;28;19913;-66
2023/10/17 07:45:02;;;;;;;;;;;7.70;99.90;;;;;;5096255;28;20265;-66
2023/10/17 07:47:33;;;;;;;;;;;7.80;99.90;;;;;;5096722;28;19920;-66
2023/10/17 07:50:00;;;;;;;;;;;7.90;99.90;;;;;;5095894;28;19912;-66
2023/10/17 07:52:26;;;;;;;;;;;7.90;99.90;;;;;;5096369;28;19912;-66
2023/10/17 07:54:58;;;;;;;;;;;7.80;99.90;;;;;;5098337;28;20002;-66
2023/10/17 07:57:27;;;;;;;;;;;7.80;99.90;;;;;;5098409;28;19947;-66
2023/10/17 07:59:57;;;;;;;;;;;7.80;99.90;;;;;;5098197;28;19912;-66
2023/10/17 08:02:23;;;;;;;;;;;7.90;99.90;;;;;;5098398;28;19938;-66
2023/10/17 08:04:50;;;;;;;;;;;8.00;99.90;;;;;;5096898;28;19919;-66
2023/10/17 08:07:19;;;;;;;;;;;8.20;99.90;;;;;;5095822;28;19916;-66
2023/10/17 08:09:50;;;;;;;;;;;8.10;99.90;;;;;;5098301;28;20003;-66
2023/10/17 08:12:21;;;;;;;;;;;8.10;99.90;;;;;;5097895;28;19916;-66
2023/10/17 08:14:52;;;;;;;;;;;8.20;99.90;;;;;;5097891;28;19918;-66
2023/10/17 08:17:19;;;;;;;;;;;8.10;99.90;;;;;;5098276;28;20000;-66
2023/10/17 08:20:00;;;;;;;;;;;8.30;99.90;;;;;;5098001;28;19995;-66
2023/10/17 08:22:27;;;;;;;;;;;8.50;99.90;;;;;;5097237;28;19912;-66
2023/10/17 08:24:53;;;;;;;;;;;8.60;99.90;;;;;;5095050;28;19916;-66
2023/10/17 08:29:49;;;;;;;;;;;8.80;99.90;;;;;;5097302;28;19912;-66
2023/10/17 08:37:43;;;;;;;;;;;9.10;99.90;;;;;;5096108;28;19916;-66
2023/10/17 08:43:00;;;;;;;;;;;9.40;99.90;;;;;;5094055;28;20000;-66
2023/10/17 08:45:26;;;;;;;;;;;9.50;99.90;;;;;;5090518;28;19912;-66
2023/10/17 08:48:02;;;;;;;;;;;9.50;99.90;;;;;;5094168;28;19931;-66
2023/10/17 08:50:30;;;;;;;;;;;9.70;99.90;;;;;;5090151;27;19927;-66
2023/10/17 08:52:59;;;;;;;;;;;9.90;99.90;;;;;;5087235;28;20488;-66
2023/10/17 08:55:27;;;;;;;;;;;10.10;99.90;;;;;;5083610;28;19923;-66
2023/10/17 08:57:53;;;;;;;;;;;10.10;99.90;;;;;;5089195;28;19920;-66
2023/10/17 09:00:38;;;;;;;;;;;9.90;99.90;;;;;;5081744;28;19917;-66
2023/10/17 09:03:09;;;;;;;;;;;10.10;99.90;;;;;;5091062;28;19920;-66
2023/10/17 09:05:49;;;;;;;;;;;10.30;99.90;;;;;;5080272;28;20380;-66
2023/10/17 09:08:21;;;;;;;;;;;10.50;99.90;;;;;;5095140;28;19916;-66
2023/10/17 09:10:51;;;;;;;;;;;11.00;99.90;;;;;;5095348;28;19912;-66
2023/10/17 09:15:56;;;;;;;;;;;11.20;99.90;;;;;;5096326;28;20003;-66
2023/10/17 09:25:12;;;;;;;;;;;11.90;99.90;;;;;;5070996;28;20337;-66
2023/10/17 09:27:37;;;;;;;;;;;12.80;98.60;;;;;;5074409;28;19917;-66
2023/10/17 09:30:10;;;;;;;;;;;13.70;95.70;;;;;;5074339;28;20404;-66
2023/10/17 09:32:37;;;;;;;;;;;13.70;93.00;;;;;;5074292;28;20296;-66
2023/10/17 09:35:15;;;;;;;;;;;14.00;92.10;;;;;;5074384;28;19920;-66
2023/10/17 09:37:42;;;;;;;;;;;13.80;90.40;;;;;;5075981;28;19916;-66
2023/10/17 09:40:12;;;;;;;;;;;13.80;90.30;;;;;;5074231;28;20058;-66
2023/10/17 09:42:44;;;;;;;;;;;14.10;89.20;;;;;;5074446;28;20286;-66
2023/10/17 09:45:10;;;;;;;;;;;14.20;88.80;;;;;;5075608;28;19919;-66
2023/10/17 09:47:38;;;;;;;;;;;14.20;90.60;;;;;;5073876;28;19923;-66
2023/10/17 09:50:08;;;;;;;;;;;14.40;89.00;;;;;;5072160;28;19917;-66
2023/10/17 09:52:33;;;;;;;;;;;14.50;89.10;;;;;;5074394;28;19917;-66
2023/10/17 09:55:04;;;;;;;;;;;15.20;84.20;;;;;;5067560;28;20235;-67
2023/10/17 09:57:31;;;;;;;;;;;15.70;84.10;;;;;;5074165;28;19919;-66
2023/10/17 10:00:17;;;;;;;;;;;16.50;78.80;;;;;;5075869;28;19912;-66
2023/10/17 10:02:43;;;;;;;;;;;16.50;73.90;;;;;;5074035;28;19962;-66
2023/10/17 10:05:24;;;;;;;;;;;16.40;76.00;;;;;;5074941;28;20008;-66
2023/10/17 10:07:50;;;;;;;;;;;16.70;76.90;;;;;;5074354;28;19916;-66
2023/10/17 10:10:34;;;;;;;;;;;17.00;70.00;;;;;;5060790;28;19920;-67
2023/10/17 10:13:01;;;;;;;;;;;16.60;72.40;;;;;;5069676;28;19912;-67
2023/10/17 10:16:02;;;;;;;;;;;17.60;69.70;;;;;;5069368;28;19908;-67
2023/10/17 10:18:34;;;;;;;;;;;19.40;63.20;;;;;;5014163;28;19914;-67
2023/10/17 10:21:01;;;;;;;;;;;19.70;61.80;;;;;;5014065;28;20356;-67
2023/10/17 10:23:36;;;;;;;;;;;19.80;55.90;;;;;;5013583;28;20004;-67
2023/10/17 10:26:11;;;;;;;;;;;20.00;55.60;;;;;;5013546;28;20366;-67
2023/10/17 10:28:37;;;;;;;;;;;19.30;52.70;;;;;;5015251;28;19961;-67
2023/10/17 10:31:29;;;;;;;;;;;19.70;54.00;;;;;;5032935;28;19913;-67
2023/10/17 10:33:56;;;;;;;;;;;20.40;54.40;;;;;;5025328;28;20001;-67
2023/10/17 10:36:25;;;;;;;;;;;20.10;48.90;;;;;;5027588;28;19923;-67
2023/10/17 10:38:53;;;;;;;;;;;19.50;49.80;;;;;;5028246;28;19917;-67
2023/10/17 10:41:22;;;;;;;;;;;18.70;51.60;;;;;;5031560;28;20333;-67
2023/10/17 10:43:48;;;;;;;;;;;18.70;48.20;;;;;;5031226;28;19909;-67
2023/10/17 10:46:17;;;;;;;;;;;18.10;48.90;;;;;;5030148;28;19929;-67
2023/10/17 10:48:46;;;;;;;;;;;18.00;48.80;;;;;;5029440;28;19913;-67
2023/10/17 10:51:18;;;;;;;;;;;17.30;50.60;;;;;;5028720;28;19951;-67
2023/10/17 10:53:44;;;;;;;;;;;18.00;51.00;;;;;;5074255;28;19913;-67
2023/10/17 10:56:11;;;;;;;;;;;18.20;48.60;;;;;;5075408;28;20385;-67
2023/10/17 10:58:47;;;;;;;;;;;17.90;48.70;;;;;;5074809;28;20274;-67
2023/10/17 11:01:13;;;;;;;;;;;17.00;50.90;;;;;;5075233;28;19912;-67
2023/10/17 11:03:44;;;;;;;;;;;17.30;52.50;;;;;;5074878;28;20362;-67
2023/10/17 11:06:10;;;;;;;;;;;16.90;53.00;;;;;;5074997;28;20007;-67
2023/10/17 11:08:41;;;;;;;;;;;17.40;50.90;;;;;;5074876;28;19940;-67
2023/10/17 11:11:09;;;;;;;;;;;17.60;49.80;;;;;;5075508;28;20315;-67
2023/10/17 11:13:42;;;;;;;;;;;17.90;49.20;;;;;;5074310;28;20254;-67
2023/10/17 11:16:08;;;;;;;;;;;17.80;47.40;;;;;;5076060;28;19913;-67
2023/10/17 11:18:34;;;;;;;;;;;18.20;49.30;;;;;;5097258;28;19957;-67
2023/10/17 11:21:00;;;;;;;;;;;18.60;44.70;;;;;;5088770;28;19912;-67
2023/10/17 11:23:27;;;;;;;;;;;19.10;44.40;;;;;;5079094;28;19912;-67
2023/10/17 11:25:53;;;;;;;;;;;19.40;44.80;;;;;;5079066;28;20387;-66
2023/10/17 11:28:19;;;;;;;;;;;19.20;43.50;;;;;;5078855;28;19912;-66
2023/10/17 11:30:48;;;;;;;;;;;18.80;41.80;;;;;;5076235;28;20089;-67
2023/10/17 11:33:17;;;;;;;;;;;19.50;40.90;;;;;;5073699;28;20365;-67
2023/10/17 11:35:47;;;;;;;;;;;18.60;40.70;;;;;;5077266;28;19919;-66
2023/10/17 11:38:37;;;;;;;;;;;18.10;42.40;;;;;;5078003;28;19923;-66
2023/10/17 11:41:06;;;;;;;;;;;18.80;41.70;;;;;;5077332;28;19958;-66
2023/10/17 11:43:35;;;;;;;;;;;19.30;39.40;;;;;;5078884;28;19923;-66
2023/10/17 11:46:12;;;;;;;;;;;18.70;39.40;;;;;;5078504;28;19920;-66
2023/10/17 11:48:43;;;;;;;;;;;17.90;41.70;;;;;;5078406;28;19912;-66
2023/10/17 11:51:12;;;;;;;;;;;18.50;41.50;;;;;;5077756;28;20007;-66
2023/10/17 11:53:57;;;;;;;;;;;18.40;40.00;;;;;;5074449;28;19912;-66
2023/10/17 11:56:22;;;;;;;;;;;18.30;40.70;;;;;;5064067;28;19955;-66
2023/10/17 11:58:51;;;;;;;;;;;19.20;38.60;;;;;;5078223;28;19912;-66
2023/10/17 12:01:17;;;;;;;;;;;19.30;38.40;;;;;;5077493;28;20331;-66
2023/10/17 12:03:42;;;;;;;;;;;18.50;38.00;;;;;;5079079;28;19999;-66
2023/10/17 12:06:15;;;;;;;;;;;17.70;39.50;;;;;;5080004;28;19916;-66
2023/10/17 12:08:43;;;;;;;;;;;18.50;39.10;;;;;;5077202;28;19912;-66
2023/10/17 12:11:09;;;;;;;;;;;19.20;39.30;;;;;;5078439;28;19908;-66
2023/10/17 12:13:35;;;;;;;;;;;19.40;36.70;;;;;;5106843;28;19920;-66
2023/10/17 12:16:08;;;;;;;;;;;19.40;38.00;;;;;;5069216;28;19939;-66
2023/10/17 12:18:35;;;;;;;;;;;19.00;35.10;;;;;;5069562;28;19944;-67
2023/10/17 12:21:01;;;;;;;;;;;19.60;35.70;;;;;;5077743;28;19946;-67
2023/10/17 12:23:30;;;;;;;;;;;20.00;36.50;;;;;;5076399;28;19912;-67
2023/10/17 12:26:01;;;;;;;;;;;20.30;35.60;;;;;;5077710;28;19916;-67
2023/10/17 12:28:27;;;;;;;;;;;20.30;32.90;;;;;;5077190;28;19912;-67
2023/10/17 12:30:53;;;;;;;;;;;20.20;34.10;;;;;;5077153;28;20304;-66
2023/10/17 12:33:23;;;;;;;;;;;20.30;32.10;;;;;;5077223;28;19916;-66
2023/10/17 12:35:50;;;;;;;;;;;20.80;31.50;;;;;;5077496;28;19934;-67
2023/10/17 12:38:24;;;;;;;;;;;21.20;33.50;;;;;;5086653;28;19917;-67
2023/10/17 12:40:50;;;;;;;;;;;20.10;33.80;;;;;;5076818;28;19956;-66
2023/10/17 12:43:16;;;;;;;;;;;18.80;35.00;;;;;;5077639;28;19913;-67
2023/10/17 12:45:42;;;;;;;;;;;18.30;34.80;;;;;;5075925;28;19924;-67
2023/10/17 12:48:11;;;;;;;;;;;19.50;36.40;;;;;;5077268;28;19999;-67
2023/10/17 12:50:43;;;;;;;;;;;19.10;33.60;;;;;;5077593;28;20354;-67
2023/10/17 12:53:10;;;;;;;;;;;19.50;36.20;;;;;;5077646;28;19912;-66
2023/10/17 12:55:36;;;;;;;;;;;18.50;33.80;;;;;;5077704;28;19908;-67
2023/10/17 12:58:02;;;;;;;;;;;19.20;34.70;;;;;;5077610;28;20274;-67
2023/10/17 13:00:30;;;;;;;;;;;20.20;33.10;;;;;;5077867;28;19919;-67
2023/10/17 13:02:56;;;;;;;;;;;20.00;31.50;;;;;;5076380;28;20388;-66
2023/10/17 13:05:22;;;;;;;;;;;19.90;33.30;;;;;;5077028;28;19912;-66
2023/10/17 13:07:47;;;;;;;;;;;19.80;32.30;;;;;;5076443;28;20019;-67
2023/10/17 13:10:13;;;;;;;;;;;19.70;33.40;;;;;;5076900;28;20298;-66
2023/10/17 13:12:42;;;;;;;;;;;20.40;32.20;;;;;;5076794;28;20292;-67
2023/10/17 13:15:08;;;;;;;;;;;20.80;31.10;;;;;;5075872;28;19919;-67
2023/10/17 13:17:34;;;;;;;;;;;19.50;32.40;;;;;;5089789;28;19912;-66
2023/10/17 13:20:07;;;;;;;;;;;18.40;35.60;;;;;;5097269;28;19939;-66
2023/10/17 13:22:37;;;;;;;;;;;18.40;35.30;;;;;;5080659;28;19912;-66
2023/10/17 13:25:05;;;;;;;;;;;17.70;36.50;;;;;;5076913;28;19912;-66
2023/10/17 13:27:31;;;;;;;;;;;18.00;37.00;;;;;;5077127;28;19926;-66
2023/10/17 13:29:57;;;;;;;;;;;19.00;37.90;;;;;;5076905;28;20374;-66
2023/10/17 13:32:23;;;;;;;;;;;19.40;37.40;;;;;;5076897;28;19960;-66
2023/10/17 13:34:51;;;;;;;;;;;18.40;37.50;;;;;;5076960;28;20042;-66
2023/10/17 13:37:17;;;;;;;;;;;18.60;40.70;;;;;;5076884;28;20069;-66
2023/10/17 13:39:43;;;;;;;;;;;19.30;38.60;;;;;;5076594;28;20285;-66
2023/10/17 13:42:09;;;;;;;;;;;19.40;37.90;;;;;;5076039;28;20011;-66
2023/10/17 13:44:35;;;;;;;;;;;19.50;37.20;;;;;;5076587;28;19913;-66
2023/10/17 13:47:01;;;;;;;;;;;19.40;37.10;;;;;;5076358;28;20100;-66
2023/10/17 13:49:29;;;;;;;;;;;19.30;37.50;;;;;;5076346;28;19913;-66
2023/10/17 13:51:55;;;;;;;;;;;19.40;37.60;;;;;;5076546;28;19969;-66
2023/10/17 13:54:20;;;;;;;;;;;19.60;36.50;;;;;;5076601;28;19916;-66
2023/10/17 13:56:46;;;;;;;;;;;19.10;38.10;;;;;;5076447;28;19916;-66
2023/10/17 13:59:13;;;;;;;;;;;18.30;38.30;;;;;;5076538;28;19919;-66
2023/10/17 14:01:42;;;;;;;;;;;17.90;39.20;;;;;;5076107;28;20374;-66
2023/10/17 14:04:11;;;;;;;;;;;17.80;40.20;;;;;;5076199;28;20331;-65
2023/10/17 14:06:40;;;;;;;;;;;17.20;41.90;;;;;;5076366;28;19919;-67
2023/10/17 14:09:15;;;;;;;;;;;17.20;43.90;;;;;;5076356;28;19912;-66
2023/10/17 14:11:41;;;;;;;;;;;16.90;45.40;;;;;;5076166;28;20285;-66
2023/10/17 14:14:07;;;;;;;;;;;16.70;44.20;;;;;;5076133;28;19912;-66
2023/10/17 14:16:40;;;;;;;;;;;16.50;44.40;;;;;;5079960;28;20006;-66
2023/10/17 14:27:21;;;;;;;;;;;16.10;46.50;;;;;;5096319;28;20285;-67
2023/10/17 14:29:47;;;;;;;;;;;16.10;46.00;;;;;;5095963;28;20138;-66
2023/10/17 14:32:17;;;;;;;;;;;15.90;47.10;;;;;;5096083;28;19918;-66
2023/10/17 14:34:43;;;;;;;;;;;15.60;47.50;;;;;;5096196;28;20014;-66
2023/10/17 14:37:10;;;;;;;;;;;15.30;45.30;;;;;;5095993;28;19967;-66
2023/10/17 14:39:36;;;;;;;;;;;15.20;48.10;;;;;;5095953;28;19912;-66
2023/10/17 14:42:03;;;;;;;;;;;14.90;48.10;;;;;;5096000;28;19919;-66
2023/10/17 14:44:29;;;;;;;;;;;15.00;48.20;;;;;;5096067;28;19938;-66
2023/10/17 14:46:57;;;;;;;;;;;15.00;50.00;;;;;;5095661;28;19957;-66
2023/10/17 14:49:26;;;;;;;;;;;15.00;50.90;;;;;;5095991;28;19912;-66
2023/10/17 14:51:53;;;;;;;;;;;15.10;46.50;;;;;;5095910;28;19923;-66
2023/10/17 14:54:19;;;;;;;;;;;15.20;48.50;;;;;;5095847;28;20000;-66
2023/10/17 14:56:44;;;;;;;;;;;15.20;48.80;;;;;;5095844;28;19916;-66
2023/10/17 14:59:10;;;;;;;;;;;15.30;50.90;;;;;;5095933;28;20015;-66
2023/10/17 15:01:36;;;;;;;;;;;15.30;46.90;;;;;;5095176;28;20003;-66
2023/10/17 15:04:02;;;;;;;;;;;15.20;47.40;;;;;;5096224;28;19923;-66
2023/10/17 15:06:28;;;;;;;;;;;15.20;47.90;;;;;;5095676;28;19923;-66
2023/10/17 15:08:54;;;;;;;;;;;15.10;48.10;;;;;;5095722;28;19981;-66
2023/10/17 15:11:20;;;;;;;;;;;14.90;50.10;;;;;;5095745;28;19916;-66
2023/10/17 15:13:46;;;;;;;;;;;14.70;51.60;;;;;;5075404;28;19919;-66
2023/10/17 15:16:14;;;;;;;;;;;14.50;50.80;;;;;;5076757;28;20346;-66
2023/10/17 15:18:40;;;;;;;;;;;14.20;53.70;;;;;;5096107;28;19919;-66
2023/10/17 15:21:09;;;;;;;;;;;14.00;54.50;;;;;;5095494;28;20350;-66
2023/10/17 15:23:36;;;;;;;;;;;13.90;55.20;;;;;;5095465;28;19912;-66
2023/10/17 15:26:01;;;;;;;;;;;13.80;55.60;;;;;;5095488;28;20287;-66
2023/10/17 15:28:27;;;;;;;;;;;13.80;56.70;;;;;;5095665;28;19912;-66
2023/10/17 15:31:09;;;;;;;;;;;13.60;56.00;;;;;;5095455;28;19912;-66
2023/10/17 15:33:36;;;;;;;;;;;13.40;56.90;;;;;;5095717;28;20392;-66
2023/10/17 15:36:05;;;;;;;;;;;13.40;57.30;;;;;;5095556;28;19916;-66
2023/10/17 15:38:31;;;;;;;;;;;13.20;57.60;;;;;;5095349;28;20383;-66
2023/10/17 15:40:57;;;;;;;;;;;13.10;57.90;;;;;;5095613;28;20426;-66
2023/10/17 15:43:24;;;;;;;;;;;13.00;57.20;;;;;;5095543;28;19916;-66
2023/10/17 15:45:54;;;;;;;;;;;12.60;59.00;;;;;;5095258;28;20365;-66
2023/10/17 15:48:20;;;;;;;;;;;12.40;59.70;;;;;;5095428;28;20003;-66
2023/10/17 15:50:58;;;;;;;;;;;12.30;60.70;;;;;;5095224;28;19912;-66
2023/10/17 15:53:24;;;;;;;;;;;12.10;60.50;;;;;;5095361;28;19943;-66
2023/10/17 15:55:54;;;;;;;;;;;11.90;61.80;;;;;;5095400;28;20277;-66
2023/10/17 15:58:21;;;;;;;;;;;11.80;62.70;;;;;;5095403;28;19946;-66
2023/10/17 16:00:47;;;;;;;;;;;11.50;62.90;;;;;;5094759;28;19908;-65
2023/10/17 16:03:15;;;;;;;;;;;11.30;62.70;;;;;;5095299;28;19913;-66
2023/10/17 16:05:42;;;;;;;;;;;11.20;64.30;;;;;;5098551;28;19912;-66
2023/10/17 16:08:10;;;;;;;;;;;11.00;64.50;;;;;;5098629;28;20335;-66
2023/10/17 16:10:35;;;;;;;;;;;10.90;64.70;;;;;;5098882;28;19974;-66
2023/10/17 16:13:01;;;;;;;;;;;10.90;67.70;;;;;;5084297;28;19916;-66
2023/10/17 16:15:27;;;;;;;;;;;10.70;68.70;;;;;;5078279;28;19917;-66
2023/10/17 16:17:53;;;;;;;;;;;10.50;71.00;;;;;;5093952;28;20003;-66
2023/10/17 16:20:19;;;;;;;;;;;10.30;73.40;;;;;;5098655;28;19966;-66
2023/10/17 16:22:44;;;;;;;;;;;10.30;75.30;;;;;;5098504;28;19908;-66
2023/10/17 16:25:13;;;;;;;;;;;10.20;76.80;;;;;;5098590;28;19919;-66
2023/10/17 16:27:39;;;;;;;;;;;10.00;79.30;;;;;;5098404;28;19938;-66
2023/10/17 16:30:08;;;;;;;;;;;9.90;80.70;;;;;;5097152;28;19969;-66
2023/10/17 16:32:34;;;;;;;;;;;9.90;82.80;;;;;;5098335;28;20000;-66
2023/10/17 16:35:00;;;;;;;;;;;9.80;84.40;;;;;;5098476;28;19908;-65
2023/10/17 16:37:27;;;;;;;;;;;9.70;85.90;;;;;;5098057;28;20358;-66
2023/10/17 16:39:55;;;;;;;;;;;9.60;87.50;;;;;;5098434;28;19916;-65
2023/10/17 16:42:21;;;;;;;;;;;9.50;90.10;;;;;;5098205;28;19912;-66
2023/10/17 16:44:47;;;;;;;;;;;9.40;90.60;;;;;;5098072;28;20014;-66
2023/10/17 16:47:15;;;;;;;;;;;9.20;91.50;;;;;;5098113;28;19923;-66
2023/10/17 16:49:41;;;;;;;;;;;9.20;92.10;;;;;;5098441;28;20007;-66
2023/10/17 16:52:07;;;;;;;;;;;9.10;93.40;;;;;;5097942;28;19959;-66
2023/10/17 16:54:34;;;;;;;;;;;9.20;94.20;;;;;;5098222;28;19919;-66
2023/10/17 16:57:00;;;;;;;;;;;9.00;95.10;;;;;;5097955;28;19912;-66
2023/10/17 16:59:26;;;;;;;;;;;9.00;95.50;;;;;;5097734;28;19919;-66
2023/10/17 17:01:55;;;;;;;;;;;8.90;96.10;;;;;;5097720;28;19920;-65
2023/10/17 17:04:21;;;;;;;;;;;8.90;96.60;;;;;;5097977;28;19912;-66
2023/10/17 17:06:46;;;;;;;;;;;8.90;96.90;;;;;;5097502;28;19923;-66
2023/10/17 17:09:19;;;;;;;;;;;8.80;97.30;;;;;;5097778;28;20273;-66
2023/10/17 17:11:48;;;;;;;;;;;8.80;97.40;;;;;;5094252;28;19962;-65